createdAt,value
2022-10-26T00:00:06.528Z,1.9000000000000001
2022-10-26T00:01:06.555Z,0
2022-10-26T00:02:06.581Z,0
2022-10-26T00:03:06.543Z,0
2022-10-26T00:04:06.522Z,0
2022-10-26T00:05:06.510Z,0
2022-10-26T00:06:06.521Z,0
2022-10-26T00:07:06.530Z,0
2022-10-26T00:08:06.525Z,0
2022-10-26T00:09:06.547Z,0
2022-10-26T00:10:06.529Z,0
2022-10-26T00:11:06.528Z,0
2022-10-26T00:12:06.536Z,0
2022-10-26T00:13:06.534Z,0
2022-10-26T00:14:06.533Z,0
2022-10-26T00:15:06.537Z,0
2022-10-26T00:16:06.537Z,0
2022-10-26T00:17:06.545Z,0
2022-10-26T00:18:06.537Z,0
2022-10-26T00:19:07.571Z,0
2022-10-26T00:20:06.535Z,0
2022-10-26T00:21:06.544Z,0
2022-10-26T00:22:06.537Z,0
2022-10-26T00:23:06.546Z,4.2
2022-10-26T00:24:06.568Z,0
2022-10-26T00:25:06.541Z,0
2022-10-26T00:26:06.544Z,0
2022-10-26T00:27:06.549Z,0
2022-10-26T00:28:06.549Z,0
2022-10-26T00:29:06.545Z,0
2022-10-26T00:30:06.547Z,0
2022-10-26T00:31:06.533Z,7.9
2022-10-26T00:32:06.552Z,6.1000000000000005
2022-10-26T00:33:06.540Z,7.6000000000000005
2022-10-26T00:34:06.541Z,6.4
2022-10-26T00:35:11.803Z,4.4
2022-10-26T00:36:06.548Z,4.6000000000000005
2022-10-26T00:37:06.549Z,4.7
2022-10-26T00:38:06.548Z,5.1000000000000005
2022-10-26T00:39:06.553Z,3.1
2022-10-26T00:40:06.542Z,5.300000000000001
2022-10-26T00:41:06.552Z,5.7
2022-10-26T00:42:06.546Z,5.7
2022-10-26T00:43:06.551Z,5
2022-10-26T00:44:06.547Z,0
2022-10-26T00:45:06.549Z,0
2022-10-26T00:46:06.548Z,0
2022-10-26T00:47:06.553Z,0
2022-10-26T00:48:06.565Z,0
2022-10-26T00:49:06.587Z,0
2022-10-26T00:50:06.557Z,0
2022-10-26T00:51:06.583Z,0
2022-10-26T00:52:06.566Z,0
2022-10-26T00:53:06.562Z,0
2022-10-26T00:54:06.562Z,0
2022-10-26T00:55:06.564Z,0
2022-10-26T00:56:06.553Z,0
2022-10-26T00:57:06.561Z,0
2022-10-26T00:58:06.570Z,0
2022-10-26T00:59:06.558Z,0
2022-10-26T01:00:06.561Z,0
2022-10-26T01:01:06.619Z,0
2022-10-26T01:02:06.579Z,0
2022-10-26T01:03:06.565Z,0
2022-10-26T01:04:06.588Z,0
2022-10-26T01:05:06.569Z,0
2022-10-26T01:06:06.562Z,0
2022-10-26T01:07:06.595Z,0
2022-10-26T01:08:06.574Z,0
2022-10-26T01:09:06.578Z,0
2022-10-26T01:10:06.580Z,0
2022-10-26T01:11:06.580Z,0
2022-10-26T01:12:06.577Z,0
2022-10-26T01:13:06.583Z,0
2022-10-26T01:14:06.578Z,1.5
2022-10-26T01:15:06.573Z,0
2022-10-26T01:16:06.595Z,0
2022-10-26T01:17:06.586Z,0
2022-10-26T01:18:06.584Z,0
2022-10-26T01:19:06.574Z,0
2022-10-26T01:20:06.586Z,0
2022-10-26T01:21:06.578Z,0
2022-10-26T01:22:06.582Z,0
2022-10-26T01:23:06.611Z,0
2022-10-26T01:24:06.575Z,0
2022-10-26T01:25:06.598Z,0
2022-10-26T01:26:06.585Z,0
2022-10-26T01:27:06.588Z,0
2022-10-26T01:28:06.593Z,0
2022-10-26T01:29:06.584Z,0
2022-10-26T01:30:06.593Z,0
2022-10-26T01:31:06.585Z,0
2022-10-26T01:32:06.581Z,0
2022-10-26T01:33:06.589Z,0
2022-10-26T01:34:06.593Z,0
2022-10-26T01:35:06.592Z,0
2022-10-26T01:36:06.584Z,0
2022-10-26T01:37:06.580Z,0
2022-10-26T01:38:06.586Z,0
2022-10-26T01:39:06.604Z,0
2022-10-26T01:40:06.589Z,0
2022-10-26T01:41:06.582Z,0
2022-10-26T01:42:06.599Z,5.5
2022-10-26T01:43:06.585Z,3.3000000000000003
2022-10-26T01:44:06.592Z,4.2
2022-10-26T01:45:06.584Z,4.7
2022-10-26T01:46:06.625Z,0
2022-10-26T01:47:06.596Z,0
2022-10-26T01:48:06.587Z,0
2022-10-26T01:49:06.594Z,0
2022-10-26T01:50:06.591Z,0
2022-10-26T01:51:06.593Z,0
2022-10-26T01:52:06.604Z,0
2022-10-26T01:53:06.587Z,0
2022-10-26T01:54:06.594Z,0
2022-10-26T01:55:06.615Z,0
2022-10-26T01:56:06.609Z,0
2022-10-26T01:57:06.597Z,0
2022-10-26T01:58:06.599Z,0
2022-10-26T01:59:06.584Z,0
2022-10-26T02:00:06.601Z,0
2022-10-26T02:01:06.630Z,0
2022-10-26T02:02:06.611Z,0
2022-10-26T02:03:06.596Z,0
2022-10-26T02:04:06.660Z,0
2022-10-26T02:05:06.596Z,0
2022-10-26T02:06:06.600Z,0
2022-10-26T02:07:06.601Z,0
2022-10-26T02:08:06.608Z,0
2022-10-26T02:09:06.600Z,0
2022-10-26T02:10:06.598Z,0
2022-10-26T02:11:06.625Z,0
2022-10-26T02:12:06.609Z,0
2022-10-26T02:13:06.590Z,0
2022-10-26T02:14:06.633Z,0
2022-10-26T02:15:06.603Z,0
2022-10-26T02:16:06.601Z,0
2022-10-26T02:17:06.606Z,0
2022-10-26T02:18:06.606Z,0
2022-10-26T02:19:06.594Z,0
2022-10-26T02:20:06.606Z,0
2022-10-26T02:21:06.597Z,0
2022-10-26T02:22:06.605Z,0
2022-10-26T02:23:06.597Z,0
2022-10-26T02:25:06.608Z,0
2022-10-26T02:26:06.604Z,0
2022-10-26T02:27:06.613Z,0
2022-10-26T02:28:06.609Z,0
2022-10-26T02:29:06.598Z,0
2022-10-26T02:30:06.597Z,0
2022-10-26T02:31:06.593Z,0
2022-10-26T02:32:06.608Z,0
2022-10-26T02:33:06.606Z,5.5
2022-10-26T02:34:06.595Z,2.4000000000000004
2022-10-26T02:35:06.603Z,4.9
2022-10-26T02:36:06.603Z,4.5
2022-10-26T02:37:06.608Z,3.9000000000000004
2022-10-26T02:38:06.607Z,2.3000000000000003
2022-10-26T02:39:06.596Z,6.2
2022-10-26T02:40:06.603Z,3.9000000000000004
2022-10-26T02:41:06.608Z,0
2022-10-26T02:42:06.606Z,0
2022-10-26T02:43:06.623Z,0
2022-10-26T02:44:06.607Z,0
2022-10-26T02:45:06.607Z,0
2022-10-26T02:46:06.609Z,5.2
2022-10-26T02:47:06.596Z,7
2022-10-26T02:48:06.598Z,4.1000000000000005
2022-10-26T02:49:06.615Z,0
2022-10-26T02:50:06.614Z,0
2022-10-26T02:51:06.609Z,2.2
2022-10-26T02:52:06.604Z,0
2022-10-26T02:53:06.612Z,0
2022-10-26T02:54:06.612Z,8.9
2022-10-26T02:55:06.611Z,11
2022-10-26T02:56:06.615Z,3.7
2022-10-26T02:57:06.613Z,0
2022-10-26T02:58:06.619Z,0
2022-10-26T02:59:06.642Z,0
2022-10-26T03:00:06.687Z,0
2022-10-26T03:01:06.701Z,0
2022-10-26T03:02:06.628Z,0
2022-10-26T03:03:06.622Z,0
2022-10-26T03:04:06.696Z,0
2022-10-26T03:05:06.619Z,0
2022-10-26T03:06:06.620Z,0
2022-10-26T03:07:06.644Z,0
2022-10-26T03:08:06.643Z,0
2022-10-26T03:09:06.637Z,0
2022-10-26T03:10:06.627Z,0
2022-10-26T03:11:06.651Z,0
2022-10-26T03:12:06.627Z,0
2022-10-26T03:13:06.633Z,0
2022-10-26T03:14:06.620Z,0
2022-10-26T03:15:06.649Z,0
2022-10-26T03:16:06.630Z,0
2022-10-26T03:17:06.622Z,0
2022-10-26T03:18:06.637Z,0
2022-10-26T03:19:06.635Z,0
2022-10-26T03:20:06.636Z,0
2022-10-26T03:21:06.636Z,0
2022-10-26T03:22:06.623Z,0
2022-10-26T03:23:06.638Z,0
2022-10-26T03:24:06.623Z,0
2022-10-26T03:25:06.631Z,0
2022-10-26T03:26:06.626Z,0
2022-10-26T03:27:06.622Z,0
2022-10-26T03:28:06.630Z,0
2022-10-26T03:29:06.633Z,0
2022-10-26T03:30:06.630Z,0
2022-10-26T03:31:06.655Z,0
2022-10-26T03:32:06.632Z,0
2022-10-26T03:33:06.684Z,0
2022-10-26T03:34:06.628Z,0
2022-10-26T03:35:06.646Z,0
2022-10-26T03:36:06.643Z,0
2022-10-26T03:37:06.645Z,0
2022-10-26T03:38:06.641Z,0
2022-10-26T03:39:06.641Z,0
2022-10-26T03:40:06.645Z,0
2022-10-26T03:41:06.646Z,0
2022-10-26T03:42:06.645Z,0
2022-10-26T03:43:06.649Z,0
2022-10-26T03:44:06.639Z,0
2022-10-26T03:45:06.651Z,0
2022-10-26T03:46:06.645Z,0
2022-10-26T03:47:06.671Z,0
2022-10-26T03:48:06.642Z,0
2022-10-26T03:49:06.634Z,0
2022-10-26T03:50:06.728Z,0
2022-10-26T03:51:06.649Z,0
2022-10-26T03:52:06.647Z,0
2022-10-26T03:53:06.648Z,0
2022-10-26T03:54:06.646Z,0
2022-10-26T03:55:06.644Z,0
2022-10-26T03:56:06.651Z,0
2022-10-26T03:57:06.640Z,0
2022-10-26T03:58:06.646Z,0
2022-10-26T03:59:06.642Z,0
2022-10-26T04:00:06.656Z,0
2022-10-26T04:01:06.693Z,0
2022-10-26T04:02:06.654Z,0
2022-10-26T04:03:06.665Z,0
2022-10-26T04:04:06.722Z,0
2022-10-26T04:05:06.658Z,0
2022-10-26T04:06:06.654Z,0
2022-10-26T04:07:06.653Z,0
2022-10-26T04:08:06.641Z,0
2022-10-26T04:09:06.652Z,0
2022-10-26T04:10:06.655Z,0
2022-10-26T04:11:06.655Z,0
2022-10-26T04:12:06.653Z,0
2022-10-26T04:13:06.658Z,0
2022-10-26T04:14:06.655Z,0
2022-10-26T04:15:06.662Z,0
2022-10-26T04:16:06.647Z,0
2022-10-26T04:17:06.655Z,0
2022-10-26T04:18:06.658Z,0
2022-10-26T04:19:06.685Z,0
2022-10-26T04:20:06.652Z,0
2022-10-26T04:21:06.657Z,0
2022-10-26T04:22:06.658Z,0
2022-10-26T04:23:06.657Z,0
2022-10-26T04:24:06.653Z,0
2022-10-26T04:25:06.657Z,0
2022-10-26T04:26:06.659Z,0
2022-10-26T04:27:06.661Z,0
2022-10-26T04:28:06.664Z,0
2022-10-26T04:29:06.665Z,0
2022-10-26T04:30:06.656Z,0
2022-10-26T04:31:06.657Z,0
2022-10-26T04:32:06.661Z,0
2022-10-26T04:33:06.655Z,0
2022-10-26T04:34:06.665Z,0
2022-10-26T04:35:06.679Z,0
2022-10-26T04:36:06.666Z,0
2022-10-26T04:37:06.659Z,0
2022-10-26T04:38:06.668Z,0
2022-10-26T04:39:06.657Z,0
2022-10-26T04:41:06.674Z,0
2022-10-26T04:42:06.660Z,0
2022-10-26T04:43:06.683Z,0
2022-10-26T04:44:06.664Z,0
2022-10-26T04:45:06.666Z,0
2022-10-26T04:46:06.668Z,0
2022-10-26T04:47:06.658Z,0
2022-10-26T04:48:06.658Z,0
2022-10-26T04:49:06.660Z,0
2022-10-26T04:50:06.661Z,0
2022-10-26T04:51:06.692Z,0
2022-10-26T04:52:06.671Z,0
2022-10-26T04:53:06.671Z,0
2022-10-26T04:54:06.656Z,0
2022-10-26T04:55:06.660Z,0
2022-10-26T04:56:06.662Z,0
2022-10-26T04:57:06.670Z,0
2022-10-26T04:58:06.672Z,0
2022-10-26T04:59:06.664Z,0
2022-10-26T05:00:06.665Z,0
2022-10-26T05:01:06.790Z,0
2022-10-26T05:02:06.750Z,0
2022-10-26T05:03:06.670Z,0
2022-10-26T05:04:06.668Z,0
2022-10-26T05:05:07.749Z,0
2022-10-26T05:06:06.661Z,0
2022-10-26T05:07:06.702Z,0
2022-10-26T05:08:06.663Z,0
2022-10-26T05:09:06.667Z,0
2022-10-26T05:10:06.669Z,0
2022-10-26T05:11:06.664Z,0
2022-10-26T05:12:06.669Z,0
2022-10-26T05:13:06.672Z,0
2022-10-26T05:14:06.670Z,0
2022-10-26T05:15:07.889Z,0
2022-10-26T05:16:06.675Z,0
2022-10-26T05:17:06.657Z,0
2022-10-26T05:18:06.670Z,0
2022-10-26T05:19:06.668Z,0
2022-10-26T05:20:06.677Z,0
2022-10-26T05:21:06.672Z,0
2022-10-26T05:22:06.670Z,0
2022-10-26T05:23:06.700Z,0
2022-10-26T05:24:08.722Z,0
2022-10-26T05:25:06.677Z,0
2022-10-26T05:26:06.669Z,0
2022-10-26T05:27:06.672Z,0
2022-10-26T05:28:06.675Z,0
2022-10-26T05:29:06.670Z,0
2022-10-26T05:31:06.684Z,0
2022-10-26T05:32:06.671Z,0
2022-10-26T05:33:06.682Z,0
2022-10-26T05:34:06.674Z,0
2022-10-26T05:35:06.678Z,0
2022-10-26T05:36:06.677Z,0
2022-10-26T05:37:06.684Z,0
2022-10-26T05:38:06.668Z,0
2022-10-26T05:39:06.695Z,0
2022-10-26T05:40:06.691Z,0
2022-10-26T05:41:06.688Z,0
2022-10-26T05:42:06.675Z,0
2022-10-26T05:43:06.674Z,0
2022-10-26T05:44:06.676Z,0
2022-10-26T05:45:06.679Z,0
2022-10-26T05:46:06.675Z,0
2022-10-26T05:47:06.675Z,0
2022-10-26T05:48:06.680Z,0
2022-10-26T05:49:06.687Z,0
2022-10-26T05:50:06.670Z,0
2022-10-26T05:51:06.678Z,0
2022-10-26T05:52:06.681Z,0
2022-10-26T05:53:06.676Z,0
2022-10-26T05:54:08.336Z,0
2022-10-26T05:56:07.351Z,0
2022-10-26T05:57:06.684Z,0
2022-10-26T05:58:06.677Z,0
2022-10-26T05:59:06.670Z,0
2022-10-26T06:00:06.679Z,0
2022-10-26T06:01:06.703Z,0
2022-10-26T06:02:06.775Z,0
2022-10-26T06:03:06.694Z,0
2022-10-26T06:04:06.701Z,0
2022-10-26T06:05:06.681Z,0
2022-10-26T06:06:07.379Z,0
2022-10-26T06:07:06.689Z,0
2022-10-26T06:08:06.681Z,0
2022-10-26T06:09:06.670Z,0
2022-10-26T06:10:06.688Z,0
2022-10-26T06:11:06.712Z,0
2022-10-26T06:12:06.682Z,0
2022-10-26T06:13:06.691Z,0
2022-10-26T06:14:06.678Z,0
2022-10-26T06:15:06.686Z,0
2022-10-26T06:16:06.681Z,0
2022-10-26T06:17:06.686Z,0
2022-10-26T06:18:06.679Z,0
2022-10-26T06:19:06.675Z,0
2022-10-26T06:20:06.728Z,0
2022-10-26T06:21:06.681Z,0
2022-10-26T06:22:06.692Z,0
2022-10-26T06:23:06.690Z,0
2022-10-26T06:24:06.694Z,0
2022-10-26T06:25:06.684Z,0
2022-10-26T06:26:06.689Z,0
2022-10-26T06:27:06.711Z,0
2022-10-26T06:28:06.676Z,0
2022-10-26T06:29:06.686Z,0
2022-10-26T06:30:06.684Z,0
2022-10-26T06:31:06.678Z,0
2022-10-26T06:32:06.684Z,0
2022-10-26T06:33:18.171Z,0
2022-10-26T06:34:06.704Z,0
2022-10-26T06:35:07.276Z,0
2022-10-26T06:36:06.686Z,0
2022-10-26T06:37:06.684Z,0
2022-10-26T06:38:06.687Z,0
2022-10-26T06:39:06.693Z,0
2022-10-26T06:40:06.685Z,0
2022-10-26T06:41:06.692Z,0
2022-10-26T06:42:06.702Z,0
2022-10-26T06:43:06.714Z,0
2022-10-26T06:44:06.696Z,0
2022-10-26T06:45:06.731Z,0
2022-10-26T06:46:06.702Z,0
2022-10-26T06:47:06.706Z,0
2022-10-26T06:48:06.699Z,0
2022-10-26T06:49:06.713Z,0
2022-10-26T06:50:06.707Z,0
2022-10-26T06:51:06.718Z,0
2022-10-26T06:52:06.710Z,0
2022-10-26T06:53:06.713Z,0
2022-10-26T06:54:06.702Z,0
2022-10-26T06:55:06.708Z,0
2022-10-26T06:56:06.703Z,0
2022-10-26T06:57:06.713Z,0
2022-10-26T06:58:06.716Z,0
2022-10-26T06:59:07.018Z,0
2022-10-26T07:00:06.716Z,0
2022-10-26T07:01:06.774Z,0
2022-10-26T07:02:06.909Z,0
2022-10-26T07:03:06.760Z,0
2022-10-26T07:04:06.728Z,0
2022-10-26T07:05:06.729Z,0
2022-10-26T07:06:06.773Z,0
2022-10-26T07:07:06.729Z,0
2022-10-26T07:08:06.732Z,0
2022-10-26T07:09:06.733Z,0
2022-10-26T07:10:06.730Z,0
2022-10-26T07:11:06.728Z,0
2022-10-26T07:12:06.734Z,0
2022-10-26T07:13:06.730Z,0
2022-10-26T07:14:06.733Z,0
2022-10-26T07:15:06.757Z,0
2022-10-26T07:16:06.739Z,0
2022-10-26T07:17:06.745Z,0
2022-10-26T07:18:06.741Z,0
2022-10-26T07:19:06.740Z,0
2022-10-26T07:20:06.732Z,0
2022-10-26T07:21:06.740Z,0
2022-10-26T07:22:06.742Z,0
2022-10-26T07:23:06.743Z,0
2022-10-26T07:24:06.751Z,0
2022-10-26T07:25:06.753Z,0
2022-10-26T07:26:06.755Z,0
2022-10-26T07:27:06.752Z,0
2022-10-26T07:28:06.756Z,0
2022-10-26T07:29:06.749Z,0
2022-10-26T07:30:06.764Z,0
2022-10-26T07:31:06.788Z,0
2022-10-26T07:32:06.766Z,0
2022-10-26T07:33:06.761Z,0
2022-10-26T07:34:06.761Z,0
2022-10-26T07:35:06.776Z,0
2022-10-26T07:36:06.770Z,0
2022-10-26T07:37:06.777Z,0
2022-10-26T07:38:06.773Z,0
2022-10-26T07:39:06.775Z,0
2022-10-26T07:40:07.089Z,0
2022-10-26T07:41:06.772Z,0
2022-10-26T07:42:06.767Z,0
2022-10-26T07:43:06.773Z,0
2022-10-26T07:44:06.782Z,0
2022-10-26T07:45:06.776Z,0
2022-10-26T07:46:06.782Z,0
2022-10-26T07:47:06.789Z,0
2022-10-26T07:48:06.780Z,0
2022-10-26T07:49:06.777Z,0
2022-10-26T07:50:06.792Z,0
2022-10-26T07:51:06.774Z,0
2022-10-26T07:52:06.781Z,0
2022-10-26T07:53:06.805Z,0
2022-10-26T07:54:06.782Z,0
2022-10-26T07:55:06.790Z,0
2022-10-26T07:56:06.806Z,0
2022-10-26T07:57:06.796Z,3.5
2022-10-26T07:58:06.795Z,6.5
2022-10-26T07:59:06.787Z,4.3
2022-10-26T08:00:06.786Z,2.6
2022-10-26T08:01:06.921Z,0
2022-10-26T08:02:06.876Z,0
2022-10-26T08:03:06.822Z,0
2022-10-26T08:04:06.801Z,0
2022-10-26T08:05:06.802Z,0
2022-10-26T08:06:06.823Z,0
2022-10-26T08:07:06.801Z,0
2022-10-26T08:08:06.795Z,0
2022-10-26T08:09:06.799Z,0
2022-10-26T08:10:06.794Z,0
2022-10-26T08:11:06.796Z,0
2022-10-26T08:12:06.793Z,0
2022-10-26T08:13:06.798Z,0
2022-10-26T08:14:06.793Z,0
2022-10-26T08:15:06.809Z,4.1000000000000005
2022-10-26T08:16:06.801Z,4
2022-10-26T08:17:06.806Z,3
2022-10-26T08:18:06.802Z,4.800000000000001
2022-10-26T08:19:06.834Z,5.5
2022-10-26T08:20:06.802Z,4.5
2022-10-26T08:21:10.559Z,3
2022-10-26T08:22:06.880Z,5.6000000000000005
2022-10-26T08:23:06.814Z,2.1
2022-10-26T08:24:06.803Z,2.2
2022-10-26T08:25:06.814Z,0
2022-10-26T08:26:06.807Z,0
2022-10-26T08:27:06.810Z,0
2022-10-26T08:28:06.807Z,4
2022-10-26T08:29:06.815Z,0
2022-10-26T08:30:06.823Z,0
2022-10-26T08:31:06.820Z,3.1
2022-10-26T08:32:06.814Z,0
2022-10-26T08:33:06.822Z,1.5
2022-10-26T08:34:06.819Z,0.6000000000000001
2022-10-26T08:35:06.843Z,0
2022-10-26T08:36:06.810Z,0
2022-10-26T08:37:06.854Z,0
2022-10-26T08:38:06.808Z,0
2022-10-26T08:39:06.821Z,0
2022-10-26T08:40:06.814Z,0
2022-10-26T08:41:06.827Z,0
2022-10-26T08:42:06.829Z,0
2022-10-26T08:43:06.818Z,0
2022-10-26T08:44:06.819Z,0
2022-10-26T08:45:06.823Z,0
2022-10-26T08:46:06.817Z,0
2022-10-26T08:47:06.876Z,0
2022-10-26T08:48:06.831Z,0
2022-10-26T08:49:06.822Z,0
2022-10-26T08:50:06.826Z,0
2022-10-26T08:51:06.854Z,0
2022-10-26T08:52:06.822Z,0
2022-10-26T08:53:06.816Z,0
2022-10-26T08:54:06.825Z,0
2022-10-26T08:55:06.826Z,0
2022-10-26T08:56:06.823Z,0
2022-10-26T08:57:06.831Z,0
2022-10-26T08:58:06.824Z,0
2022-10-26T08:59:06.834Z,0
2022-10-26T09:00:06.827Z,0
2022-10-26T09:01:06.930Z,0
2022-10-26T09:02:06.836Z,3.7
2022-10-26T09:03:06.833Z,0
2022-10-26T09:04:06.833Z,0
2022-10-26T09:05:06.833Z,0
2022-10-26T09:06:06.843Z,0
2022-10-26T09:07:06.860Z,0
2022-10-26T09:08:06.823Z,0
2022-10-26T09:09:06.829Z,0
2022-10-26T09:10:06.828Z,0
2022-10-26T09:11:06.845Z,0
2022-10-26T09:12:06.832Z,0
2022-10-26T09:13:06.843Z,0
2022-10-26T09:14:06.836Z,0
2022-10-26T09:15:06.835Z,0
2022-10-26T09:16:06.830Z,0
2022-10-26T09:17:06.833Z,0
2022-10-26T09:18:06.837Z,0
2022-10-26T09:19:06.833Z,0
2022-10-26T09:20:06.831Z,0
2022-10-26T09:21:06.842Z,0
2022-10-26T09:22:06.837Z,0
2022-10-26T09:23:06.864Z,0
2022-10-26T09:24:06.842Z,0
2022-10-26T09:25:07.730Z,0
2022-10-26T09:26:06.835Z,0
2022-10-26T09:27:06.845Z,0
2022-10-26T09:28:06.850Z,0
2022-10-26T09:29:06.860Z,0
2022-10-26T09:30:06.847Z,0
2022-10-26T09:31:06.857Z,0
2022-10-26T09:32:06.863Z,0
2022-10-26T09:33:06.855Z,0
2022-10-26T09:34:06.858Z,0
2022-10-26T09:35:06.862Z,0
2022-10-26T09:36:06.864Z,0
2022-10-26T09:37:06.864Z,0
2022-10-26T09:38:06.864Z,0
2022-10-26T09:39:06.886Z,0
2022-10-26T09:40:06.862Z,0
2022-10-26T09:41:06.870Z,0
2022-10-26T09:42:06.860Z,0
2022-10-26T09:43:06.861Z,0
2022-10-26T09:44:06.870Z,0
2022-10-26T09:45:06.863Z,0
2022-10-26T09:46:06.867Z,0
2022-10-26T09:47:06.870Z,0
2022-10-26T09:48:07.386Z,0
2022-10-26T09:49:06.879Z,0
2022-10-26T09:50:06.872Z,0
2022-10-26T09:51:06.878Z,2.9000000000000004
2022-10-26T09:52:06.950Z,3.6
2022-10-26T09:53:06.881Z,0
2022-10-26T09:54:06.877Z,0
2022-10-26T09:55:06.905Z,2.6
2022-10-26T09:56:06.886Z,0
2022-10-26T09:57:06.886Z,0
2022-10-26T09:58:06.883Z,0
2022-10-26T09:59:06.882Z,0
2022-10-26T10:00:06.884Z,0
2022-10-26T10:01:06.939Z,0
2022-10-26T10:02:06.884Z,0
2022-10-26T10:03:06.927Z,0.8
2022-10-26T10:04:06.887Z,0
2022-10-26T10:05:06.884Z,0
2022-10-26T10:06:06.897Z,6.6000000000000005
2022-10-26T10:07:06.900Z,1.1
2022-10-26T10:08:06.896Z,1.8
2022-10-26T10:09:06.902Z,0.8
2022-10-26T10:10:06.897Z,6.4
2022-10-26T10:11:06.928Z,3
2022-10-26T10:12:06.904Z,0
2022-10-26T10:13:06.909Z,0
2022-10-26T10:14:06.913Z,0
2022-10-26T10:15:06.912Z,0
2022-10-26T10:16:06.906Z,0
2022-10-26T10:17:06.959Z,0
2022-10-26T10:18:06.922Z,0
2022-10-26T10:19:06.916Z,0
2022-10-26T10:20:06.919Z,0
2022-10-26T10:21:06.925Z,0
2022-10-26T10:22:06.923Z,0
2022-10-26T10:23:06.926Z,2.7
2022-10-26T10:24:06.921Z,0
2022-10-26T10:25:06.923Z,4.1000000000000005
2022-10-26T10:26:06.929Z,1.8
2022-10-26T10:27:06.968Z,0
2022-10-26T10:28:06.930Z,4.3
2022-10-26T10:29:06.935Z,1.4000000000000001
2022-10-26T10:30:06.925Z,0
2022-10-26T10:31:07.009Z,0
2022-10-26T10:32:06.931Z,0
2022-10-26T10:33:06.938Z,0
2022-10-26T10:34:06.929Z,3.2
2022-10-26T10:35:06.931Z,0
2022-10-26T10:36:06.939Z,5.1000000000000005
2022-10-26T10:37:06.946Z,0
2022-10-26T10:38:06.937Z,3.3000000000000003
2022-10-26T10:39:06.940Z,0
2022-10-26T10:40:06.941Z,7.4
2022-10-26T10:41:06.947Z,0.8
2022-10-26T10:42:06.941Z,3.8000000000000003
2022-10-26T10:43:06.974Z,4
2022-10-26T10:44:06.961Z,1.4000000000000001
2022-10-26T10:45:06.959Z,0
2022-10-26T10:46:06.957Z,0
2022-10-26T10:47:06.949Z,3.2
2022-10-26T10:48:06.976Z,1.6
2022-10-26T10:49:06.960Z,0
2022-10-26T10:50:06.968Z,0
2022-10-26T10:51:06.967Z,0
2022-10-26T10:52:06.960Z,0
2022-10-26T10:53:06.959Z,0
2022-10-26T10:54:06.962Z,0
2022-10-26T10:55:06.969Z,0
2022-10-26T10:56:07.853Z,0
2022-10-26T10:57:06.973Z,0
2022-10-26T10:58:06.991Z,3.7
2022-10-26T10:59:06.990Z,5.2
2022-10-26T11:00:06.965Z,3
2022-10-26T11:01:07.043Z,2.8000000000000003
2022-10-26T11:02:07.101Z,6.6000000000000005
2022-10-26T11:03:06.976Z,8.1
2022-10-26T11:04:07.027Z,8
2022-10-26T11:05:06.975Z,6.4
2022-10-26T11:06:06.980Z,3.5
2022-10-26T11:07:06.972Z,0
2022-10-26T11:08:06.970Z,2.8000000000000003
2022-10-26T11:09:06.986Z,0
2022-10-26T11:10:06.975Z,2.5
2022-10-26T11:11:06.981Z,7.7
2022-10-26T11:12:06.982Z,7.300000000000001
2022-10-26T11:13:06.985Z,6.9
2022-10-26T11:14:06.971Z,6
2022-10-26T11:15:07.014Z,5.300000000000001
2022-10-26T11:16:06.987Z,4.6000000000000005
2022-10-26T11:17:06.997Z,6.6000000000000005
2022-10-26T11:18:06.981Z,5.2
2022-10-26T11:19:06.984Z,4.7
2022-10-26T11:20:09.980Z,3.2
2022-10-26T11:21:06.990Z,1.6
2022-10-26T11:22:07.002Z,1.3
2022-10-26T11:23:07.026Z,0.30000000000000004
2022-10-26T11:24:06.992Z,0
2022-10-26T11:25:06.995Z,1.3
2022-10-26T11:26:06.990Z,0
2022-10-26T11:27:06.998Z,0
2022-10-26T11:28:07.001Z,5.5
2022-10-26T11:29:07.058Z,3.7
2022-10-26T11:30:07.010Z,5.9
2022-10-26T11:31:07.032Z,0
2022-10-26T11:32:07.010Z,0
2022-10-26T11:33:07.013Z,3.5
2022-10-26T11:34:07.005Z,2.4000000000000004
2022-10-26T11:35:07.002Z,0
2022-10-26T11:36:07.003Z,0
2022-10-26T11:37:07.008Z,0
2022-10-26T11:38:07.008Z,3.1
2022-10-26T11:39:07.016Z,1.9000000000000001
2022-10-26T11:40:07.013Z,3.8000000000000003
2022-10-26T11:41:07.015Z,0
2022-10-26T11:42:07.009Z,0
2022-10-26T11:43:07.014Z,0
2022-10-26T11:44:07.010Z,1
2022-10-26T11:45:07.031Z,0
2022-10-26T11:46:07.030Z,0
2022-10-26T11:47:07.050Z,0
2022-10-26T11:48:07.022Z,0
2022-10-26T11:49:07.031Z,0
2022-10-26T11:50:07.023Z,0
2022-10-26T11:51:07.030Z,0
2022-10-26T11:52:07.021Z,0
2022-10-26T11:53:07.021Z,0
2022-10-26T11:54:07.034Z,0
2022-10-26T11:55:07.019Z,0
2022-10-26T11:56:07.031Z,0
2022-10-26T11:57:07.027Z,0
2022-10-26T11:58:07.033Z,0
2022-10-26T11:59:07.038Z,0
2022-10-26T12:00:07.029Z,0
2022-10-26T12:01:07.099Z,0
2022-10-26T12:02:07.035Z,0
2022-10-26T12:03:07.055Z,0
2022-10-26T12:04:07.039Z,0
2022-10-26T12:05:07.044Z,0
2022-10-26T12:06:07.037Z,0
2022-10-26T12:07:07.038Z,0
2022-10-26T12:08:07.034Z,0
2022-10-26T12:09:07.049Z,0
2022-10-26T12:10:07.029Z,0
2022-10-26T12:12:07.049Z,0
2022-10-26T12:13:07.059Z,0
2022-10-26T12:14:07.048Z,0
2022-10-26T12:15:07.044Z,0
2022-10-26T12:16:07.052Z,0
2022-10-26T12:17:07.103Z,0
2022-10-26T12:18:07.059Z,0
2022-10-26T12:19:07.084Z,0
2022-10-26T12:20:07.060Z,0
2022-10-26T12:21:07.062Z,0
2022-10-26T12:22:07.065Z,0
2022-10-26T12:23:07.065Z,0
2022-10-26T12:24:07.069Z,0
2022-10-26T12:25:10.106Z,0
2022-10-26T12:26:07.054Z,0
2022-10-26T12:27:07.065Z,0
2022-10-26T12:28:07.067Z,0
2022-10-26T12:29:07.073Z,0
2022-10-26T12:30:07.071Z,0
2022-10-26T12:31:07.067Z,0
2022-10-26T12:32:07.074Z,0
2022-10-26T12:33:07.082Z,0
2022-10-26T12:34:07.071Z,0
2022-10-26T12:35:07.099Z,0
2022-10-26T12:37:07.074Z,0
2022-10-26T12:38:07.071Z,0.9
2022-10-26T12:39:07.077Z,4.6000000000000005
2022-10-26T12:40:07.086Z,3.6
2022-10-26T12:41:07.075Z,2.6
2022-10-26T12:42:07.079Z,0
2022-10-26T12:43:07.083Z,0
2022-10-26T12:44:07.677Z,0
2022-10-26T12:45:07.076Z,4.3
2022-10-26T12:46:07.077Z,2
2022-10-26T12:47:07.091Z,0
2022-10-26T12:48:15.574Z,2.8000000000000003
2022-10-26T12:49:07.088Z,1.7000000000000002
2022-10-26T12:50:07.124Z,0
2022-10-26T12:51:07.120Z,0
2022-10-26T12:52:07.120Z,0
2022-10-26T12:53:07.094Z,0
2022-10-26T12:54:07.091Z,3.1
2022-10-26T12:55:07.094Z,0
2022-10-26T12:56:07.090Z,1.9000000000000001
2022-10-26T12:57:07.104Z,0
2022-10-26T12:58:07.089Z,0
2022-10-26T12:59:07.095Z,3.4000000000000004
2022-10-26T13:00:07.095Z,4
2022-10-26T13:01:07.123Z,1.3
2022-10-26T13:02:07.098Z,4.4
2022-10-26T13:03:07.091Z,2.9000000000000004
2022-10-26T13:04:07.095Z,3.6
2022-10-26T13:05:07.722Z,3.8000000000000003
2022-10-26T13:06:07.096Z,3.8000000000000003
2022-10-26T13:07:07.131Z,2.5
2022-10-26T13:08:07.101Z,4
2022-10-26T13:10:07.119Z,1.9000000000000001
2022-10-26T13:11:07.105Z,3.5
2022-10-26T13:12:07.111Z,2.3000000000000003
2022-10-26T13:13:07.110Z,2.8000000000000003
2022-10-26T13:14:07.093Z,0.5
2022-10-26T13:15:07.101Z,2
2022-10-26T13:16:07.097Z,0.7000000000000001
2022-10-26T13:17:07.107Z,1
2022-10-26T13:18:07.104Z,0
2022-10-26T13:19:07.110Z,0
2022-10-26T13:20:07.115Z,2
2022-10-26T13:21:07.103Z,1.6
2022-10-26T13:22:07.100Z,0.5
2022-10-26T13:23:07.153Z,1.9000000000000001
2022-10-26T13:24:07.118Z,0
2022-10-26T13:25:07.120Z,0
2022-10-26T13:26:07.116Z,2.3000000000000003
2022-10-26T13:27:07.121Z,2.1
2022-10-26T13:28:07.112Z,0.9
2022-10-26T13:29:07.116Z,0
2022-10-26T13:30:07.154Z,0
2022-10-26T13:31:07.119Z,2.9000000000000004
2022-10-26T13:32:07.108Z,3.1
2022-10-26T13:33:07.115Z,2.5
2022-10-26T13:34:07.129Z,0
2022-10-26T13:35:07.120Z,0
2022-10-26T13:36:07.105Z,2.6
2022-10-26T13:37:07.125Z,2.1
2022-10-26T13:38:07.113Z,3
2022-10-26T13:39:07.142Z,0.9
2022-10-26T13:40:07.186Z,0.7000000000000001
2022-10-26T13:41:07.117Z,0
2022-10-26T13:42:07.112Z,2.5
2022-10-26T13:43:07.121Z,2
2022-10-26T13:44:07.114Z,0
2022-10-26T13:45:07.117Z,0
2022-10-26T13:46:07.123Z,1.3
2022-10-26T13:47:07.132Z,0
2022-10-26T13:48:07.121Z,3.5
2022-10-26T13:49:07.177Z,3.4000000000000004
2022-10-26T13:50:07.211Z,4.3
2022-10-26T13:51:07.145Z,3.3000000000000003
2022-10-26T13:52:07.129Z,5.7
2022-10-26T13:53:07.125Z,4.3
2022-10-26T13:54:07.131Z,4.4
2022-10-26T13:55:07.160Z,3.4000000000000004
2022-10-26T13:56:07.134Z,4.7
2022-10-26T13:57:07.121Z,4.6000000000000005
2022-10-26T13:58:07.123Z,2.6
2022-10-26T13:59:07.170Z,0.8
2022-10-26T14:00:07.167Z,0
2022-10-26T14:01:07.210Z,0
2022-10-26T14:02:07.135Z,0
2022-10-26T14:03:07.131Z,0
2022-10-26T14:04:07.128Z,1.5
2022-10-26T14:05:07.121Z,1.7000000000000002
2022-10-26T14:06:07.123Z,3.3000000000000003
2022-10-26T14:07:07.129Z,2.2
2022-10-26T14:08:07.121Z,0
2022-10-26T14:09:07.119Z,0
2022-10-26T14:10:07.140Z,2.4000000000000004